aviador You're here:

CYSF Decoded Metar

STONY RAPIDS in SK, CANADA
Report Time2018-04-23 22:00:00
UTC Time2018-04-23 22:47:06
Flight Rules mvfr MVFR
Wind240° at 07 kt
W.Decomp.*RWY 24: 6.9 kt HW 1.3 kt LCW
W.Rank240° ranks 24
Current wind is above 240° avg. (6.3)
Visibility9999 m
Phenomena:N/A
Clouds:Overcast 025 Hf
Expected CloudBase > 2,000 ft AGL from Temp-Dew spread
Ceiling2,500 ft
Temp01°C (ISA -12)
Dew Point-4°C (70% RH)
AAT-4.0°C
QNH1025 hPa
Density Alt-1,027 ft
Elevation820 ft
Report Wrong Elevation
Raw Report
CYSF 232200Z AUTO 24007KT 210V280 9SM OVC025 01/M04 A3026 RMK
SLP267=

Extra information for CYSF:More info

Metar Taf Metar & Taf Last 4 Metars F.Rules Stats Wind Profile Meteogram Temp Stats Airport Information Weather charts Add Link Nearby VenuesMetar ALERT Operation Metar Decoded Social comments